createdAt,value
2017-10-23T00:01:18.574Z,3.30
2017-10-23T00:03:46.214Z,2.60
2017-10-23T00:06:13.561Z,2.63
2017-10-23T00:08:40.949Z,3.00
2017-10-23T00:11:08.301Z,2.40
2017-10-23T00:13:35.644Z,2.30
2017-10-23T00:16:03.107Z,2.30
2017-10-23T00:18:30.379Z,2.47
2017-10-23T00:20:57.749Z,2.40
2017-10-23T00:23:25.065Z,2.57
2017-10-23T00:25:52.359Z,2.03
2017-10-23T00:28:19.676Z,2.10
2017-10-23T00:30:46.991Z,2.07
2017-10-23T00:33:14.350Z,2.23
2017-10-23T00:35:41.672Z,2.53
2017-10-23T00:40:42.630Z,2.53
2017-10-23T00:43:09.964Z,2.33
2017-10-23T00:45:37.346Z,2.33
2017-10-23T00:48:04.727Z,3.30
2017-10-23T00:50:32.094Z,2.57
2017-10-23T00:52:59.440Z,2.30
2017-10-23T00:55:26.774Z,2.57
2017-10-23T00:57:54.119Z,2.60
2017-10-23T01:00:21.456Z,2.70
2017-10-23T01:02:48.836Z,2.83
2017-10-23T01:05:16.189Z,2.60
2017-10-23T01:07:43.528Z,2.23
2017-10-23T01:10:10.899Z,2.20
2017-10-23T01:12:38.314Z,2.90
2017-10-23T01:15:05.669Z,2.83
2017-10-23T01:17:33.012Z,2.80
2017-10-23T01:20:00.320Z,2.60
2017-10-23T01:22:27.709Z,2.73
2017-10-23T01:24:55.019Z,2.70
2017-10-23T01:27:22.414Z,2.80
2017-10-23T01:29:49.874Z,2.93
2017-10-23T01:32:17.160Z,2.53
2017-10-23T01:34:44.463Z,2.73
2017-10-23T01:37:11.846Z,2.40
2017-10-23T01:39:39.155Z,2.40
2017-10-23T01:42:06.492Z,2.60
2017-10-23T01:44:33.742Z,2.27
2017-10-23T01:47:01.068Z,3.90
2017-10-23T01:49:28.369Z,2.10
2017-10-23T01:51:55.638Z,2.73
2017-10-23T01:54:23.251Z,3.00
2017-10-23T01:56:50.606Z,3.30
2017-10-23T01:59:17.903Z,2.93
2017-10-23T02:01:45.229Z,3.50
2017-10-23T02:04:12.593Z,2.70
2017-10-23T02:06:39.926Z,2.90
2017-10-23T02:09:07.268Z,2.93
2017-10-23T02:11:34.595Z,3.27
2017-10-23T02:14:01.923Z,2.70
2017-10-23T02:16:29.268Z,3.20
2017-10-23T02:18:56.591Z,3.00
2017-10-23T02:21:23.902Z,2.70
2017-10-23T02:23:51.260Z,2.77
2017-10-23T02:26:18.608Z,2.80
2017-10-23T02:28:46.064Z,3.63
2017-10-23T02:31:13.361Z,3.70
2017-10-23T02:33:40.720Z,2.87
2017-10-23T02:36:08.030Z,3.10
2017-10-23T02:38:35.593Z,3.33
2017-10-23T02:41:02.876Z,3.20
2017-10-23T02:43:30.252Z,3.00
2017-10-23T02:45:57.529Z,3.80
2017-10-23T02:48:24.849Z,3.43
2017-10-23T02:50:52.203Z,3.30
2017-10-23T02:53:19.520Z,3.37
2017-10-23T02:55:46.835Z,3.53
2017-10-23T02:58:14.367Z,3.30
2017-10-23T03:00:41.819Z,4.00
2017-10-23T03:03:09.175Z,3.27
2017-10-23T03:05:36.492Z,3.97
2017-10-23T03:08:03.982Z,3.00
2017-10-23T03:10:31.303Z,3.50
2017-10-23T03:12:58.615Z,2.80
2017-10-23T03:15:25.917Z,3.27
2017-10-23T03:17:53.215Z,3.10
2017-10-23T03:20:20.555Z,3.37
2017-10-23T03:22:47.901Z,4.60
2017-10-23T03:25:15.203Z,2.90
2017-10-23T03:27:42.503Z,3.70
2017-10-23T03:30:09.792Z,3.80
2017-10-23T03:32:37.111Z,3.20
2017-10-23T03:35:04.451Z,3.20
2017-10-23T03:37:31.778Z,4.13
2017-10-23T03:39:59.067Z,3.10
2017-10-23T03:42:26.400Z,3.90
2017-10-23T03:44:53.763Z,3.37
2017-10-23T03:47:21.078Z,3.47
2017-10-23T03:49:48.396Z,2.73
2017-10-23T03:52:15.749Z,3.70
2017-10-23T03:54:43.116Z,3.57
2017-10-23T03:57:10.457Z,2.97
2017-10-23T03:59:37.920Z,3.97
2017-10-23T04:02:05.330Z,3.87
2017-10-23T04:04:33.551Z,3.30
2017-10-23T04:07:00.929Z,3.00
2017-10-23T04:09:28.299Z,3.87
2017-10-23T04:11:55.628Z,3.50
2017-10-23T04:14:23.015Z,3.37
2017-10-23T04:16:50.338Z,3.90
2017-10-23T04:19:17.752Z,4.13
2017-10-23T04:21:46.182Z,4.00
2017-10-23T04:24:13.539Z,3.60
2017-10-23T04:26:40.928Z,3.10
2017-10-23T04:29:08.304Z,3.73
2017-10-23T04:31:35.671Z,3.50
2017-10-23T04:34:03.077Z,3.53
2017-10-23T04:36:30.588Z,3.60
2017-10-23T04:38:57.916Z,5.17
2017-10-23T04:41:25.234Z,3.30
2017-10-23T04:43:52.740Z,3.70
2017-10-23T04:46:20.034Z,3.47
2017-10-23T04:48:47.348Z,4.57
2017-10-23T04:51:14.728Z,3.63
2017-10-23T04:53:42.021Z,4.00
2017-10-23T04:56:10.163Z,3.07
2017-10-23T04:58:37.430Z,3.80
2017-10-23T05:01:04.739Z,4.60
2017-10-23T05:03:32.129Z,3.47
2017-10-23T05:05:59.517Z,3.23
2017-10-23T05:08:26.775Z,4.27
2017-10-23T05:10:54.046Z,2.97
2017-10-23T05:13:21.382Z,3.37
2017-10-23T05:15:48.670Z,3.70
2017-10-23T05:18:16.243Z,3.40
2017-10-23T05:20:43.668Z,4.60
2017-10-23T05:23:10.973Z,3.80
2017-10-23T05:25:38.323Z,3.40
2017-10-23T05:28:05.773Z,4.00
2017-10-23T05:30:33.754Z,4.27
2017-10-23T05:33:01.036Z,3.30
2017-10-23T05:35:28.489Z,3.87
2017-10-23T05:37:55.889Z,4.00
2017-10-23T05:40:23.231Z,3.23
2017-10-23T05:42:50.554Z,3.33
2017-10-23T05:45:17.848Z,4.30
2017-10-23T05:47:45.198Z,3.93
2017-10-23T05:50:12.483Z,4.53
2017-10-23T05:52:39.827Z,3.23
2017-10-23T05:55:07.144Z,4.30
2017-10-23T05:57:34.474Z,3.20
2017-10-23T06:00:02.184Z,2.90
2017-10-23T06:02:29.526Z,3.80
2017-10-23T06:04:56.899Z,3.50
2017-10-23T06:07:24.966Z,3.73
2017-10-23T06:09:52.235Z,3.70
2017-10-23T06:12:19.540Z,3.60
2017-10-23T06:14:46.922Z,3.30
2017-10-23T06:17:14.306Z,4.30
2017-10-23T06:19:41.658Z,3.70
2017-10-23T06:22:08.998Z,3.80
2017-10-23T06:24:36.392Z,3.93
2017-10-23T06:27:03.687Z,4.00
2017-10-23T06:29:30.967Z,4.27
2017-10-23T06:31:58.463Z,4.00
2017-10-23T06:34:25.753Z,4.53
2017-10-23T06:36:53.042Z,3.67
2017-10-23T06:39:20.309Z,3.30
2017-10-23T06:41:47.600Z,4.00
2017-10-23T06:44:14.871Z,3.47
2017-10-23T06:46:42.130Z,3.33
2017-10-23T06:49:10.274Z,3.60
2017-10-23T06:51:37.707Z,3.87
2017-10-23T06:54:05.007Z,2.93
2017-10-23T06:56:32.346Z,3.20
2017-10-23T06:58:59.686Z,3.97
2017-10-23T07:01:27.118Z,3.33
2017-10-23T07:03:54.491Z,3.40
2017-10-23T07:06:21.751Z,2.73
2017-10-23T07:08:49.051Z,3.30
2017-10-23T07:11:16.311Z,4.07
2017-10-23T07:13:43.570Z,2.83
2017-10-23T07:16:10.863Z,3.73
2017-10-23T07:18:38.128Z,3.80
2017-10-23T07:21:05.415Z,3.00
2017-10-23T07:23:32.738Z,4.30
2017-10-23T07:26:00.088Z,3.33
2017-10-23T07:28:27.426Z,3.77
2017-10-23T07:30:54.779Z,3.87
2017-10-23T07:33:22.091Z,3.60
2017-10-23T07:35:49.479Z,3.43
2017-10-23T07:38:16.914Z,3.73
2017-10-23T07:40:44.235Z,3.70
2017-10-23T07:43:13.414Z,3.73
2017-10-23T07:45:42.276Z,3.03
2017-10-23T07:48:09.579Z,3.30
2017-10-23T07:50:36.885Z,3.87
2017-10-23T07:53:04.185Z,3.30
2017-10-23T07:55:31.469Z,3.80
2017-10-23T07:57:58.805Z,3.20
2017-10-23T08:00:26.144Z,4.43
2017-10-23T08:02:53.451Z,3.47
2017-10-23T08:05:20.784Z,3.23
2017-10-23T08:07:48.079Z,2.90
2017-10-23T08:10:15.422Z,3.67
2017-10-23T08:12:42.738Z,3.10
2017-10-23T08:15:10.108Z,3.30
2017-10-23T08:17:37.415Z,3.33
2017-10-23T08:20:04.771Z,3.67
2017-10-23T08:22:32.099Z,3.10
2017-10-23T08:24:59.383Z,3.40
2017-10-23T08:27:26.723Z,3.43
2017-10-23T08:29:54.039Z,3.80
2017-10-23T08:32:21.354Z,4.17
2017-10-23T08:34:48.659Z,3.40
2017-10-23T08:37:15.951Z,4.30
2017-10-23T08:39:43.313Z,3.47
2017-10-23T08:42:10.579Z,3.47
2017-10-23T08:44:37.917Z,3.53
2017-10-23T08:47:05.245Z,3.97
2017-10-23T08:49:32.562Z,3.30
2017-10-23T08:51:59.864Z,3.10
2017-10-23T08:54:27.138Z,2.93
2017-10-23T08:56:54.435Z,3.23
2017-10-23T08:59:21.844Z,3.23
2017-10-23T09:01:49.142Z,3.10
2017-10-23T09:04:16.463Z,3.33
2017-10-23T09:06:43.754Z,4.13
2017-10-23T09:09:11.076Z,3.27
2017-10-23T09:11:38.354Z,3.07
2017-10-23T09:14:05.674Z,3.33
2017-10-23T09:16:33.015Z,3.50
2017-10-23T09:19:00.363Z,3.40
2017-10-23T09:21:27.694Z,2.60
2017-10-23T09:23:55.042Z,3.20
2017-10-23T09:26:22.454Z,2.90
2017-10-23T09:28:49.740Z,2.80
2017-10-23T09:31:17.024Z,3.10
2017-10-23T09:33:44.355Z,3.80
2017-10-23T09:36:11.683Z,3.27
2017-10-23T09:38:38.983Z,3.40
2017-10-23T09:41:06.288Z,2.93
2017-10-23T09:43:33.557Z,3.20
2017-10-23T09:46:00.830Z,3.47
2017-10-23T09:48:28.142Z,2.87
2017-10-23T09:50:55.393Z,3.20
2017-10-23T09:53:22.688Z,3.00
2017-10-23T09:55:49.994Z,3.20
2017-10-23T09:58:17.307Z,3.80
2017-10-23T10:00:44.614Z,3.70
2017-10-23T10:03:11.902Z,2.70
2017-10-23T10:05:39.272Z,3.30
2017-10-23T10:08:06.526Z,2.80
2017-10-23T10:10:33.785Z,3.07
2017-10-23T10:13:01.066Z,2.90
2017-10-23T10:15:28.323Z,2.70
2017-10-23T10:17:55.653Z,2.30
2017-10-23T10:20:22.933Z,2.67
2017-10-23T10:22:50.229Z,2.33
2017-10-23T10:25:17.522Z,3.00
2017-10-23T10:27:44.791Z,2.47
2017-10-23T10:30:12.169Z,2.93
2017-10-23T10:32:39.434Z,2.30
2017-10-23T10:35:06.723Z,2.50
2017-10-23T10:37:34.032Z,2.77
2017-10-23T10:40:01.341Z,2.40
2017-10-23T10:42:28.639Z,2.27
2017-10-23T10:44:55.924Z,2.47
2017-10-23T10:47:23.199Z,2.20
2017-10-23T10:49:50.495Z,2.63
2017-10-23T10:52:17.764Z,2.30
2017-10-23T10:54:45.079Z,2.37
2017-10-23T10:57:12.339Z,2.87
2017-10-23T10:59:39.625Z,2.33
2017-10-23T11:02:06.962Z,2.50
2017-10-23T11:04:34.274Z,3.10
2017-10-23T11:07:01.583Z,2.13
2017-10-23T11:09:28.903Z,2.30
2017-10-23T11:11:56.194Z,2.50
2017-10-23T11:14:23.568Z,2.40
2017-10-23T11:16:50.825Z,2.30
2017-10-23T11:19:18.110Z,2.13
2017-10-23T11:21:45.409Z,2.20
2017-10-23T11:24:12.719Z,2.17
2017-10-23T11:26:40.005Z,2.50
2017-10-23T11:29:07.314Z,2.93
2017-10-23T11:31:34.631Z,2.20
2017-10-23T11:34:01.915Z,2.00
2017-10-23T11:36:29.205Z,2.47
2017-10-23T11:38:56.539Z,2.30
2017-10-23T11:41:23.811Z,2.47
2017-10-23T11:43:51.160Z,2.57
2017-10-23T11:46:18.422Z,2.10
2017-10-23T11:48:45.699Z,2.70
2017-10-23T11:51:13.003Z,2.20
2017-10-23T11:53:40.288Z,2.43
2017-10-23T11:56:07.559Z,3.10
2017-10-23T11:58:34.853Z,2.80
2017-10-23T12:01:02.159Z,2.80
2017-10-23T12:03:29.443Z,2.97
2017-10-23T12:05:56.734Z,2.40
2017-10-23T12:08:24.020Z,2.63
2017-10-23T12:10:51.320Z,2.27
2017-10-23T12:13:18.607Z,2.60
2017-10-23T12:15:45.864Z,2.63
2017-10-23T12:18:13.171Z,2.47
2017-10-23T12:20:40.468Z,2.10
2017-10-23T12:23:07.741Z,2.30
2017-10-23T12:25:35.081Z,2.43
2017-10-23T12:28:02.411Z,2.50
2017-10-23T12:30:29.681Z,2.50
2017-10-23T12:32:56.968Z,2.30
2017-10-23T12:35:24.266Z,2.80
2017-10-23T12:37:51.583Z,2.63
2017-10-23T12:40:18.833Z,3.17
2017-10-23T12:42:46.134Z,2.43
2017-10-23T12:45:13.411Z,2.47
2017-10-23T12:47:40.683Z,3.20
2017-10-23T12:50:08.006Z,2.47
2017-10-23T12:52:35.341Z,2.27
2017-10-23T12:55:02.620Z,2.70
2017-10-23T12:57:29.904Z,2.00
2017-10-23T12:59:57.186Z,2.50
2017-10-23T13:02:24.471Z,2.80
2017-10-23T13:04:51.737Z,2.40
2017-10-23T13:07:19.041Z,2.07
2017-10-23T13:09:46.318Z,3.00
2017-10-23T13:12:13.669Z,2.30
2017-10-23T13:14:40.944Z,1.80
2017-10-23T13:17:08.245Z,2.10
2017-10-23T13:19:36.071Z,2.30
2017-10-23T13:22:03.368Z,2.00
2017-10-23T13:24:30.674Z,1.97
2017-10-23T13:26:57.967Z,2.37
2017-10-23T13:29:25.263Z,2.10
2017-10-23T13:31:52.571Z,2.43
2017-10-23T13:34:19.879Z,2.83
2017-10-23T13:36:47.135Z,2.40
2017-10-23T13:39:14.459Z,2.50
2017-10-23T13:41:41.740Z,2.10
2017-10-23T13:44:09.050Z,2.10
2017-10-23T13:46:36.347Z,2.30
2017-10-23T13:49:03.610Z,2.23
2017-10-23T13:51:30.930Z,2.30
2017-10-23T13:53:58.224Z,2.17
2017-10-23T13:56:25.523Z,2.53
2017-10-23T13:58:52.855Z,2.20
2017-10-23T14:01:20.224Z,2.23
2017-10-23T14:03:47.539Z,2.20
2017-10-23T14:06:14.829Z,1.80
2017-10-23T14:08:42.119Z,2.07
2017-10-23T14:11:09.447Z,1.90
2017-10-23T14:13:36.770Z,1.70
2017-10-23T14:16:04.067Z,2.30
2017-10-23T14:18:31.388Z,2.03
2017-10-23T14:20:58.694Z,2.20
2017-10-23T14:23:26.019Z,2.27
2017-10-23T14:25:53.310Z,2.27
2017-10-23T14:28:20.592Z,2.23
2017-10-23T14:30:47.951Z,2.33
2017-10-23T14:33:15.250Z,2.13
2017-10-23T14:35:42.524Z,2.60
2017-10-23T14:38:09.839Z,2.57
2017-10-23T14:40:37.126Z,2.00
2017-10-23T14:43:04.417Z,2.30
2017-10-23T14:45:31.780Z,2.00
2017-10-23T14:47:59.087Z,2.17
2017-10-23T14:50:26.400Z,2.10
2017-10-23T14:52:53.681Z,2.17
2017-10-23T14:55:21.024Z,2.57
2017-10-23T14:57:48.337Z,2.07
2017-10-23T15:00:15.657Z,2.10
2017-10-23T15:02:42.952Z,2.40
2017-10-23T15:05:10.252Z,2.10
2017-10-23T15:07:37.547Z,2.20
2017-10-23T15:10:04.890Z,3.47
2017-10-23T15:12:32.191Z,2.50
2017-10-23T15:14:59.468Z,2.47
2017-10-23T15:17:26.927Z,2.43
2017-10-23T15:19:54.251Z,2.83
2017-10-23T15:22:21.557Z,2.20
2017-10-23T15:24:48.830Z,2.37
2017-10-23T15:27:16.167Z,2.20
2017-10-23T15:29:43.455Z,2.10
2017-10-23T15:32:10.754Z,2.30
2017-10-23T15:34:38.043Z,1.70
2017-10-23T15:37:05.397Z,2.20
2017-10-23T15:39:32.770Z,2.30
2017-10-23T15:42:00.086Z,2.77
2017-10-23T15:44:27.378Z,2.10
2017-10-23T15:46:54.675Z,2.50
2017-10-23T15:49:21.995Z,2.40
2017-10-23T15:51:49.276Z,1.77
2017-10-23T15:54:16.616Z,2.40
2017-10-23T15:56:43.898Z,2.10
2017-10-23T15:59:11.154Z,2.30
2017-10-23T16:01:38.480Z,3.20
2017-10-23T16:04:05.745Z,2.43
2017-10-23T16:06:33.096Z,2.30
2017-10-23T16:09:00.399Z,2.20
2017-10-23T16:11:27.766Z,2.80
2017-10-23T16:13:55.034Z,2.30
2017-10-23T16:16:22.308Z,2.30
2017-10-23T16:18:49.645Z,2.13
2017-10-23T16:21:16.920Z,2.50
2017-10-23T16:23:44.208Z,2.33
2017-10-23T16:26:11.524Z,2.40
2017-10-23T16:28:38.853Z,2.47
2017-10-23T16:31:06.171Z,3.00
2017-10-23T16:33:33.488Z,3.07
2017-10-23T16:36:00.775Z,2.10
2017-10-23T16:38:28.026Z,2.57
2017-10-23T16:40:55.287Z,2.80
2017-10-23T16:43:22.594Z,2.17
2017-10-23T16:45:49.900Z,2.30
2017-10-23T16:48:17.196Z,2.60
2017-10-23T16:50:44.498Z,2.67
2017-10-23T16:53:11.873Z,2.77
2017-10-23T16:55:39.145Z,3.03
2017-10-23T16:58:06.395Z,2.57
2017-10-23T17:00:33.759Z,2.70
2017-10-23T17:03:01.004Z,2.50
2017-10-23T17:05:28.314Z,2.67
2017-10-23T17:07:55.599Z,2.60
2017-10-23T17:10:22.897Z,2.53
2017-10-23T17:12:50.256Z,2.37
2017-10-23T17:15:17.580Z,3.07
2017-10-23T17:17:44.897Z,2.70
2017-10-23T17:20:12.200Z,2.67
2017-10-23T17:22:39.548Z,3.17
2017-10-23T17:25:06.852Z,2.77
2017-10-23T17:27:34.146Z,3.70
2017-10-23T17:30:01.455Z,3.00
2017-10-23T17:32:28.760Z,2.90
2017-10-23T17:34:56.093Z,2.30
2017-10-23T17:37:23.436Z,2.67
2017-10-23T17:39:50.724Z,2.73
2017-10-23T17:42:18.044Z,2.53
2017-10-23T17:44:45.315Z,3.20
2017-10-23T17:47:12.665Z,2.83
2017-10-23T17:49:39.973Z,2.80
2017-10-23T17:52:07.294Z,2.70
2017-10-23T17:54:34.611Z,2.90
2017-10-23T17:57:01.895Z,3.00
2017-10-23T17:59:29.177Z,3.27
2017-10-23T18:01:56.434Z,3.00
2017-10-23T18:04:23.752Z,2.77
2017-10-23T18:06:51.034Z,3.50
2017-10-23T18:09:18.307Z,3.47
2017-10-23T18:11:45.648Z,2.97
2017-10-23T18:14:12.967Z,3.17
2017-10-23T18:16:41.037Z,3.27
2017-10-23T18:19:08.282Z,3.63
2017-10-23T18:21:35.629Z,3.10
2017-10-23T18:24:02.991Z,3.00
2017-10-23T18:26:30.266Z,3.07
2017-10-23T18:28:57.572Z,3.50
2017-10-23T18:31:24.991Z,3.10
2017-10-23T18:33:52.279Z,3.37
2017-10-23T18:36:19.602Z,3.60
2017-10-23T18:38:46.891Z,3.40
2017-10-23T18:41:14.228Z,2.93
2017-10-23T18:43:41.545Z,3.60
2017-10-23T18:46:08.871Z,3.00
2017-10-23T18:48:36.210Z,3.70
2017-10-23T18:51:03.558Z,3.07
2017-10-23T18:53:30.822Z,3.50
2017-10-23T18:55:58.106Z,4.17
2017-10-23T18:58:25.434Z,3.70
2017-10-23T19:00:52.702Z,3.83
2017-10-23T19:03:20.296Z,3.57
2017-10-23T19:05:47.582Z,2.90
2017-10-23T19:08:14.857Z,3.50
2017-10-23T19:10:42.154Z,3.63
2017-10-23T19:13:09.471Z,3.90
2017-10-23T19:15:36.760Z,4.40
2017-10-23T19:18:04.050Z,4.60
2017-10-23T19:20:31.349Z,4.00
2017-10-23T19:22:58.706Z,4.13
2017-10-23T19:25:26.015Z,3.80
2017-10-23T19:27:53.283Z,4.17
2017-10-23T19:30:20.612Z,3.70
2017-10-23T19:32:47.953Z,3.63
2017-10-23T19:35:15.247Z,4.33
2017-10-23T19:37:42.597Z,3.70
2017-10-23T19:40:09.873Z,3.83
2017-10-23T19:42:37.167Z,3.80
2017-10-23T19:45:04.567Z,3.67
2017-10-23T19:47:31.871Z,3.27
2017-10-23T19:49:59.267Z,3.80
2017-10-23T19:52:26.539Z,3.90
2017-10-23T19:54:53.874Z,3.53
2017-10-23T19:57:21.183Z,3.93
2017-10-23T19:59:48.536Z,3.60
2017-10-23T20:02:15.832Z,3.63
2017-10-23T20:04:43.128Z,3.60
2017-10-23T20:07:10.443Z,3.70
2017-10-23T20:09:37.734Z,4.00
2017-10-23T20:12:05.408Z,3.17
2017-10-23T20:14:32.667Z,3.20
2017-10-23T20:16:59.922Z,3.80
2017-10-23T20:19:27.219Z,4.97
2017-10-23T20:21:54.543Z,2.90
2017-10-23T20:24:21.798Z,4.57
2017-10-23T20:26:49.079Z,3.73
2017-10-23T20:29:16.440Z,3.50
2017-10-23T20:31:43.686Z,3.80
2017-10-23T20:34:10.988Z,4.30
2017-10-23T20:36:38.278Z,4.33
2017-10-23T20:39:05.539Z,4.30
2017-10-23T20:41:32.841Z,3.80
2017-10-23T20:44:00.095Z,3.87
2017-10-23T20:46:27.360Z,3.73
2017-10-23T20:48:54.747Z,4.90
2017-10-23T20:51:22.045Z,4.03
2017-10-23T20:53:49.335Z,4.50
2017-10-23T20:56:16.635Z,4.30
2017-10-23T20:58:43.886Z,5.43
2017-10-23T21:01:11.183Z,6.30
2017-10-23T21:03:38.530Z,5.60
2017-10-23T21:06:05.858Z,6.23
2017-10-23T21:08:34.063Z,5.60
2017-10-23T21:11:01.340Z,5.43
2017-10-23T21:13:28.627Z,5.40
2017-10-23T21:15:55.887Z,4.30
2017-10-23T21:18:23.172Z,4.83
2017-10-23T21:20:50.523Z,5.47
2017-10-23T21:23:17.783Z,6.23
2017-10-23T21:25:45.087Z,4.50
2017-10-23T21:28:12.353Z,4.90
2017-10-23T21:30:39.636Z,4.53
2017-10-23T21:33:06.895Z,4.40
2017-10-23T21:35:34.181Z,5.13
2017-10-23T21:38:01.432Z,4.97
2017-10-23T21:40:28.728Z,5.37
2017-10-23T21:42:56.017Z,5.27
2017-10-23T21:45:23.298Z,4.83
2017-10-23T21:47:55.350Z,4.60
2017-10-23T21:50:22.427Z,4.60
2017-10-23T21:52:49.686Z,4.70
2017-10-23T21:55:16.984Z,5.40
2017-10-23T21:57:44.239Z,5.20
2017-10-23T22:00:11.533Z,4.77
2017-10-23T22:02:38.795Z,4.77
2017-10-23T22:05:06.103Z,4.40
2017-10-23T22:07:33.472Z,4.50
2017-10-23T22:10:00.731Z,5.00
2017-10-23T22:12:28.011Z,4.57
2017-10-23T22:14:55.343Z,4.57
2017-10-23T22:17:22.585Z,4.57
2017-10-23T22:19:49.868Z,4.50
2017-10-23T22:22:17.162Z,4.30
2017-10-23T22:24:44.420Z,4.23
2017-10-23T22:27:11.695Z,4.03
2017-10-23T22:29:38.994Z,3.37
2017-10-23T22:32:06.264Z,5.60
2017-10-23T22:34:33.512Z,4.97
2017-10-23T22:37:00.795Z,5.17
2017-10-23T22:39:28.084Z,4.33
2017-10-23T22:41:55.363Z,6.00
2017-10-23T22:44:22.618Z,5.70
2017-10-23T22:46:49.909Z,4.97
2017-10-23T22:49:17.196Z,6.07
2017-10-23T22:51:44.478Z,5.00
2017-10-23T22:54:11.747Z,6.53
2017-10-23T22:56:39.066Z,5.33
2017-10-23T22:59:06.333Z,5.23
2017-10-23T23:01:33.623Z,5.60
2017-10-23T23:04:00.904Z,5.63
2017-10-23T23:06:28.182Z,6.07
2017-10-23T23:08:55.482Z,5.70
2017-10-23T23:11:22.788Z,5.57
2017-10-23T23:13:50.047Z,6.70
2017-10-23T23:16:17.322Z,5.00
2017-10-23T23:18:44.625Z,6.47
2017-10-23T23:21:11.889Z,7.67
2017-10-23T23:23:39.183Z,6.17
2017-10-23T23:26:06.448Z,6.93
2017-10-23T23:28:33.750Z,8.23
2017-10-23T23:31:01.015Z,6.70
2017-10-23T23:33:28.275Z,6.07
2017-10-23T23:35:55.559Z,6.67
2017-10-23T23:38:22.856Z,5.20
2017-10-23T23:40:50.121Z,6.93
2017-10-23T23:43:17.409Z,8.67
2017-10-23T23:45:44.696Z,6.93
2017-10-23T23:48:11.984Z,6.70
2017-10-23T23:50:39.242Z,7.20
2017-10-23T23:53:06.615Z,6.30
2017-10-23T23:55:33.915Z,6.40
2017-10-23T23:58:01.170Z,7.30
